sensor_id;sensor_type;location;lat;lon;timestamp;pressure;altitude;pressure_sealevel;temperature;humidity
77019;BME280;66044;53.142;17.962;2023-06-19T00:00:12;100945.79;;;15.77;73.11
77019;BME280;66044;53.142;17.962;2023-06-19T00:02:59;100946.84;;;15.75;73.02
77019;BME280;66044;53.142;17.962;2023-06-19T00:05:26;100945.42;;;15.71;73.03
77019;BME280;66044;53.142;17.962;2023-06-19T00:07:53;100943.52;;;15.69;72.95
77019;BME280;66044;53.142;17.962;2023-06-19T00:10:21;100945.46;;;15.66;72.87
77019;BME280;66044;53.142;17.962;2023-06-19T00:12:48;100944.34;;;15.64;72.96
77019;BME280;66044;53.142;17.962;2023-06-19T00:15:14;100943.45;;;15.62;73.04
77019;BME280;66044;53.142;17.962;2023-06-19T00:17:41;100946.86;;;15.60;72.95
77019;BME280;66044;53.142;17.962;2023-06-19T00:20:08;100948.51;;;15.57;72.77
77019;BME280;66044;53.142;17.962;2023-06-19T00:22:35;100953.35;;;15.55;72.83
77019;BME280;66044;53.142;17.962;2023-06-19T00:25:02;100951.69;;;15.54;72.93
77019;BME280;66044;53.142;17.962;2023-06-19T00:27:29;100954.02;;;15.52;73.02
77019;BME280;66044;53.142;17.962;2023-06-19T00:29:55;100954.89;;;15.50;73.07
77019;BME280;66044;53.142;17.962;2023-06-19T00:32:28;100956.48;;;15.49;73.06
77019;BME280;66044;53.142;17.962;2023-06-19T00:34:55;100958.02;;;15.48;73.34
77019;BME280;66044;53.142;17.962;2023-06-19T00:37:22;100954.64;;;15.45;73.08
77019;BME280;66044;53.142;17.962;2023-06-19T00:39:49;100954.27;;;15.43;73.11
77019;BME280;66044;53.142;17.962;2023-06-19T00:42:15;100949.89;;;15.41;72.93
77019;BME280;66044;53.142;17.962;2023-06-19T00:44:41;100948.98;;;15.39;73.08
77019;BME280;66044;53.142;17.962;2023-06-19T00:47:10;100947.45;;;15.37;73.20
77019;BME280;66044;53.142;17.962;2023-06-19T00:49:36;100945.16;;;15.35;73.13
77019;BME280;66044;53.142;17.962;2023-06-19T00:52:03;100940.11;;;15.33;73.21
77019;BME280;66044;53.142;17.962;2023-06-19T00:54:30;100939.84;;;15.32;73.45
77019;BME280;66044;53.142;17.962;2023-06-19T00:56:58;100938.72;;;15.30;73.19
77019;BME280;66044;53.142;17.962;2023-06-19T00:59:24;100940.91;;;15.28;73.50
77019;BME280;66044;53.142;17.962;2023-06-19T01:01:51;100942.35;;;15.27;73.42
77019;BME280;66044;53.142;17.962;2023-06-19T01:04:18;100941.92;;;15.25;73.45
77019;BME280;66044;53.142;17.962;2023-06-19T01:06:57;100937.67;;;15.22;73.42
77019;BME280;66044;53.142;17.962;2023-06-19T01:09:40;100933.88;;;15.19;73.71
77019;BME280;66044;53.142;17.962;2023-06-19T01:12:15;100935.22;;;15.16;73.77
77019;BME280;66044;53.142;17.962;2023-06-19T01:14:59;100932.23;;;15.14;73.86
77019;BME280;66044;53.142;17.962;2023-06-19T01:17:28;100936.05;;;15.12;73.91
77019;BME280;66044;53.142;17.962;2023-06-19T01:19:56;100937.56;;;15.11;73.68
77019;BME280;66044;53.142;17.962;2023-06-19T01:22:32;100938.68;;;15.09;73.65
77019;BME280;66044;53.142;17.962;2023-06-19T01:24:58;100936.55;;;15.07;73.70
77019;BME280;66044;53.142;17.962;2023-06-19T01:27:25;100932.80;;;15.06;73.81
77019;BME280;66044;53.142;17.962;2023-06-19T01:29:57;100935.14;;;15.04;73.74
77019;BME280;66044;53.142;17.962;2023-06-19T01:32:35;100937.27;;;15.02;73.72
77019;BME280;66044;53.142;17.962;2023-06-19T01:35:04;100937.68;;;15.00;73.75
77019;BME280;66044;53.142;17.962;2023-06-19T01:37:32;100938.79;;;14.98;73.75
77019;BME280;66044;53.142;17.962;2023-06-19T01:40:02;100940.05;;;14.96;73.92
77019;BME280;66044;53.142;17.962;2023-06-19T01:42:30;100940.16;;;14.94;73.90
77019;BME280;66044;53.142;17.962;2023-06-19T01:44:56;100938.27;;;14.93;73.75
77019;BME280;66044;53.142;17.962;2023-06-19T01:47:23;100939.67;;;14.90;73.85
77019;BME280;66044;53.142;17.962;2023-06-19T01:49:49;100939.02;;;14.89;73.73
77019;BME280;66044;53.142;17.962;2023-06-19T01:52:16;100941.52;;;14.86;73.90
77019;BME280;66044;53.142;17.962;2023-06-19T01:54:42;100940.74;;;14.84;73.78
77019;BME280;66044;53.142;17.962;2023-06-19T01:57:09;100936.50;;;14.81;73.91
77019;BME280;66044;53.142;17.962;2023-06-19T01:59:36;100932.38;;;14.80;73.90
77019;BME280;66044;53.142;17.962;2023-06-19T02:02:02;100934.36;;;14.79;73.97
77019;BME280;66044;53.142;17.962;2023-06-19T02:04:30;100930.77;;;14.78;73.97
77019;BME280;66044;53.142;17.962;2023-06-19T02:06:56;100929.14;;;14.78;73.89
77019;BME280;66044;53.142;17.962;2023-06-19T02:09:23;100928.23;;;14.76;73.96
77019;BME280;66044;53.142;17.962;2023-06-19T02:11:49;100930.36;;;14.74;73.86
77019;BME280;66044;53.142;17.962;2023-06-19T02:14:16;100935.82;;;14.73;73.61
77019;BME280;66044;53.142;17.962;2023-06-19T02:16:42;100932.19;;;14.70;73.68
77019;BME280;66044;53.142;17.962;2023-06-19T02:19:12;100929.80;;;14.67;73.73
77019;BME280;66044;53.142;17.962;2023-06-19T02:21:39;100931.52;;;14.65;73.64
77019;BME280;66044;53.142;17.962;2023-06-19T02:24:05;100927.98;;;14.63;73.60
77019;BME280;66044;53.142;17.962;2023-06-19T02:26:32;100929.19;;;14.61;73.51
77019;BME280;66044;53.142;17.962;2023-06-19T02:28:58;100927.42;;;14.60;73.46
77019;BME280;66044;53.142;17.962;2023-06-19T02:31:25;100925.64;;;14.59;73.43
77019;BME280;66044;53.142;17.962;2023-06-19T02:33:51;100925.38;;;14.58;73.44
77019;BME280;66044;53.142;17.962;2023-06-19T02:36:18;100926.98;;;14.57;73.32
77019;BME280;66044;53.142;17.962;2023-06-19T02:38:48;100929.06;;;14.56;73.21
77019;BME280;66044;53.142;17.962;2023-06-19T02:41:15;100928.13;;;14.57;73.21
77019;BME280;66044;53.142;17.962;2023-06-19T02:43:42;100930.45;;;14.57;73.18
77019;BME280;66044;53.142;17.962;2023-06-19T02:46:09;100930.36;;;14.56;73.19
77019;BME280;66044;53.142;17.962;2023-06-19T02:48:35;100928.92;;;14.55;73.00
77019;BME280;66044;53.142;17.962;2023-06-19T02:51:02;100928.84;;;14.52;73.10
77019;BME280;66044;53.142;17.962;2023-06-19T02:53:28;100928.75;;;14.51;73.13
77019;BME280;66044;53.142;17.962;2023-06-19T02:55:55;100926.15;;;14.53;73.20
77019;BME280;66044;53.142;17.962;2023-06-19T02:58:21;100934.04;;;14.55;73.19
77019;BME280;66044;53.142;17.962;2023-06-19T03:00:48;100935.11;;;14.57;73.15
77019;BME280;66044;53.142;17.962;2023-06-19T03:03:14;100942.98;;;14.61;73.24
77019;BME280;66044;53.142;17.962;2023-06-19T03:05:41;100947.02;;;14.64;73.12
77019;BME280;66044;53.142;17.962;2023-06-19T03:08:07;100946.48;;;14.67;73.16
77019;BME280;66044;53.142;17.962;2023-06-19T03:10:34;100949.32;;;14.72;73.16
77019;BME280;66044;53.142;17.962;2023-06-19T03:13:00;100957.52;;;14.78;73.20
77019;BME280;66044;53.142;17.962;2023-06-19T03:15:27;100956.08;;;14.85;73.16
77019;BME280;66044;53.142;17.962;2023-06-19T03:17:53;100956.55;;;14.92;73.03
77019;BME280;66044;53.142;17.962;2023-06-19T03:20:20;100955.89;;;14.99;72.89
77019;BME280;66044;53.142;17.962;2023-06-19T03:22:46;100955.40;;;15.07;72.83
77019;BME280;66044;53.142;17.962;2023-06-19T03:25:14;100956.38;;;15.15;72.56
77019;BME280;66044;53.142;17.962;2023-06-19T03:27:40;100958.05;;;15.24;72.33
77019;BME280;66044;53.142;17.962;2023-06-19T03:30:07;100958.20;;;15.33;72.38
77019;BME280;66044;53.142;17.962;2023-06-19T03:32:34;100956.63;;;15.45;72.25
77019;BME280;66044;53.142;17.962;2023-06-19T03:35:01;100960.55;;;15.59;72.03
77019;BME280;66044;53.142;17.962;2023-06-19T03:37:28;100961.77;;;15.75;72.05
77019;BME280;66044;53.142;17.962;2023-06-19T03:39:55;100962.52;;;15.92;71.58
77019;BME280;66044;53.142;17.962;2023-06-19T03:42:22;100963.38;;;16.11;71.21
77019;BME280;66044;53.142;17.962;2023-06-19T03:44:48;100966.27;;;16.37;70.91
77019;BME280;66044;53.142;17.962;2023-06-19T03:47:15;100966.00;;;17.44;69.88
77019;BME280;66044;53.142;17.962;2023-06-19T03:49:42;100967.51;;;18.92;67.99
77019;BME280;66044;53.142;17.962;2023-06-19T03:52:09;100970.20;;;20.31;65.72
77019;BME280;66044;53.142;17.962;2023-06-19T03:54:35;100974.79;;;21.56;63.43
77019;BME280;66044;53.142;17.962;2023-06-19T03:57:02;100976.79;;;22.76;60.86
77019;BME280;66044;53.142;17.962;2023-06-19T03:59:28;100982.30;;;23.90;58.40
77019;BME280;66044;53.142;17.962;2023-06-19T04:01:55;100983.63;;;24.89;55.81
77019;BME280;66044;53.142;17.962;2023-06-19T04:04:21;100979.85;;;25.80;53.42
77019;BME280;66044;53.142;17.962;2023-06-19T04:06:47;100980.21;;;26.67;51.08
77019;BME280;66044;53.142;17.962;2023-06-19T04:09:14;100982.95;;;27.44;49.31
77019;BME280;66044;53.142;17.962;2023-06-19T04:11:40;100983.27;;;28.22;47.35
77019;BME280;66044;53.142;17.962;2023-06-19T04:14:07;100985.54;;;28.96;46.22
77019;BME280;66044;53.142;17.962;2023-06-19T04:16:33;100984.60;;;29.70;44.15
77019;BME280;66044;53.142;17.962;2023-06-19T04:19:00;100984.88;;;30.39;42.96
77019;BME280;66044;53.142;17.962;2023-06-19T04:21:26;100986.15;;;31.09;41.80
77019;BME280;66044;53.142;17.962;2023-06-19T04:23:53;100987.52;;;31.74;40.56
77019;BME280;66044;53.142;17.962;2023-06-19T04:26:19;100990.59;;;32.40;39.57
77019;BME280;66044;53.142;17.962;2023-06-19T04:28:47;100997.52;;;33.05;38.35
77019;BME280;66044;53.142;17.962;2023-06-19T04:31:14;100998.95;;;33.65;37.00
77019;BME280;66044;53.142;17.962;2023-06-19T04:33:45;100994.70;;;34.23;35.87
77019;BME280;66044;53.142;17.962;2023-06-19T04:36:11;100997.47;;;34.78;34.87
77019;BME280;66044;53.142;17.962;2023-06-19T04:38:38;100997.16;;;35.32;33.84
77019;BME280;66044;53.142;17.962;2023-06-19T04:41:04;100997.97;;;35.79;33.24
77019;BME280;66044;53.142;17.962;2023-06-19T04:43:31;101000.52;;;36.31;32.27
77019;BME280;66044;53.142;17.962;2023-06-19T04:45:58;100998.92;;;36.83;31.37
77019;BME280;66044;53.142;17.962;2023-06-19T04:48:25;100999.87;;;37.24;30.53
77019;BME280;66044;53.142;17.962;2023-06-19T04:50:52;101004.13;;;37.53;29.44
77019;BME280;66044;53.142;17.962;2023-06-19T04:53:19;101007.87;;;37.77;28.91
77019;BME280;66044;53.142;17.962;2023-06-19T04:55:45;101006.09;;;38.14;28.63
77019;BME280;66044;53.142;17.962;2023-06-19T04:58:11;101010.61;;;38.55;28.30
77019;BME280;66044;53.142;17.962;2023-06-19T05:00:41;101015.70;;;38.89;26.89
77019;BME280;66044;53.142;17.962;2023-06-19T05:03:07;101017.47;;;39.08;27.13
77019;BME280;66044;53.142;17.962;2023-06-19T05:05:34;101019.30;;;39.41;26.10
77019;BME280;66044;53.142;17.962;2023-06-19T05:08:01;101019.13;;;39.65;26.12
77019;BME280;66044;53.142;17.962;2023-06-19T05:10:27;101024.56;;;40.12;25.94
77019;BME280;66044;53.142;17.962;2023-06-19T05:12:54;101028.67;;;40.72;25.53
77019;BME280;66044;53.142;17.962;2023-06-19T05:15:20;101033.71;;;41.36;24.98
77019;BME280;66044;53.142;17.962;2023-06-19T05:17:47;101033.65;;;41.73;24.10
77019;BME280;66044;53.142;17.962;2023-06-19T05:20:13;101033.85;;;42.05;23.79
77019;BME280;66044;53.142;17.962;2023-06-19T05:22:40;101033.41;;;42.39;22.91
77019;BME280;66044;53.142;17.962;2023-06-19T05:25:07;101037.61;;;42.54;22.65
77019;BME280;66044;53.142;17.962;2023-06-19T05:27:34;101036.08;;;42.96;22.82
77019;BME280;66044;53.142;17.962;2023-06-19T05:30:00;101040.77;;;43.52;22.15
77019;BME280;66044;53.142;17.962;2023-06-19T05:32:27;101044.87;;;43.87;21.37
77019;BME280;66044;53.142;17.962;2023-06-19T05:34:54;101046.85;;;44.14;20.76
77019;BME280;66044;53.142;17.962;2023-06-19T05:37:20;101046.64;;;44.40;20.69
77019;BME280;66044;53.142;17.962;2023-06-19T05:39:49;101042.49;;;44.65;20.19
77019;BME280;66044;53.142;17.962;2023-06-19T05:42:15;101039.03;;;45.01;19.83
77019;BME280;66044;53.142;17.962;2023-06-19T05:44:41;101042.73;;;45.36;19.81
77019;BME280;66044;53.142;17.962;2023-06-19T05:47:08;101045.60;;;45.74;19.37
77019;BME280;66044;53.142;17.962;2023-06-19T05:49:34;101045.02;;;46.04;19.15
77019;BME280;66044;53.142;17.962;2023-06-19T05:52:01;101052.67;;;46.64;18.67
77019;BME280;66044;53.142;17.962;2023-06-19T05:54:27;101046.46;;;46.83;17.99
77019;BME280;66044;53.142;17.962;2023-06-19T05:56:54;101047.75;;;47.06;17.94
77019;BME280;66044;53.142;17.962;2023-06-19T05:59:20;101048.56;;;47.42;18.28
77019;BME280;66044;53.142;17.962;2023-06-19T06:01:48;101051.61;;;47.86;17.85
77019;BME280;66044;53.142;17.962;2023-06-19T06:04:16;101048.65;;;48.49;17.87
77019;BME280;66044;53.142;17.962;2023-06-19T06:06:43;101049.00;;;49.20;17.24
77019;BME280;66044;53.142;17.962;2023-06-19T06:09:10;101047.83;;;49.78;16.71
77019;BME280;66044;53.142;17.962;2023-06-19T06:11:38;101047.59;;;50.30;16.28
77019;BME280;66044;53.142;17.962;2023-06-19T06:14:05;101050.70;;;50.86;15.65
77019;BME280;66044;53.142;17.962;2023-06-19T06:16:31;101052.45;;;51.13;15.16
77019;BME280;66044;53.142;17.962;2023-06-19T06:18:58;101050.02;;;51.23;14.52
77019;BME280;66044;53.142;17.962;2023-06-19T06:21:27;101051.15;;;51.48;14.84
77019;BME280;66044;53.142;17.962;2023-06-19T06:23:54;101054.20;;;51.67;14.17
77019;BME280;66044;53.142;17.962;2023-06-19T06:26:21;101059.41;;;51.82;14.27
77019;BME280;66044;53.142;17.962;2023-06-19T06:28:48;101057.27;;;52.12;14.20
77019;BME280;66044;53.142;17.962;2023-06-19T06:31:14;101063.95;;;52.53;14.04
77019;BME280;66044;53.142;17.962;2023-06-19T06:33:41;101068.13;;;52.87;13.39
77019;BME280;66044;53.142;17.962;2023-06-19T06:36:07;101068.17;;;52.97;13.45
77019;BME280;66044;53.142;17.962;2023-06-19T06:38:34;101069.05;;;53.27;13.02
77019;BME280;66044;53.142;17.962;2023-06-19T06:41:00;101070.39;;;53.66;12.58
77019;BME280;66044;53.142;17.962;2023-06-19T06:43:26;101071.25;;;54.03;12.69
77019;BME280;66044;53.142;17.962;2023-06-19T06:45:53;101071.61;;;54.37;12.46
77019;BME280;66044;53.142;17.962;2023-06-19T06:48:20;101073.11;;;54.57;12.36
77019;BME280;66044;53.142;17.962;2023-06-19T06:50:47;101069.95;;;54.77;12.32
77019;BME280;66044;53.142;17.962;2023-06-19T06:53:14;101066.62;;;55.02;11.89
77019;BME280;66044;53.142;17.962;2023-06-19T06:55:40;101069.23;;;55.27;11.53
77019;BME280;66044;53.142;17.962;2023-06-19T06:58:06;101071.48;;;55.39;11.30
77019;BME280;66044;53.142;17.962;2023-06-19T07:00:33;101071.64;;;55.32;10.77
77019;BME280;66044;53.142;17.962;2023-06-19T07:02:59;101069.97;;;55.27;10.66
77019;BME280;66044;53.142;17.962;2023-06-19T07:05:26;101070.14;;;55.41;10.71
77019;BME280;66044;53.142;17.962;2023-06-19T07:07:55;101073.60;;;55.72;10.84
77019;BME280;66044;53.142;17.962;2023-06-19T07:10:21;101074.18;;;55.96;10.26
77019;BME280;66044;53.142;17.962;2023-06-19T07:12:48;101076.51;;;55.94;10.16
77019;BME280;66044;53.142;17.962;2023-06-19T07:15:14;101075.81;;;55.70;9.96
77019;BME280;66044;53.142;17.962;2023-06-19T07:17:41;101069.66;;;55.63;10.12
77019;BME280;66044;53.142;17.962;2023-06-19T07:20:08;101070.92;;;55.42;10.33
77019;BME280;66044;53.142;17.962;2023-06-19T07:22:35;101070.80;;;55.24;10.36
77019;BME280;66044;53.142;17.962;2023-06-19T07:25:02;101068.75;;;55.01;10.52
77019;BME280;66044;53.142;17.962;2023-06-19T07:27:30;101075.77;;;54.73;10.77
77019;BME280;66044;53.142;17.962;2023-06-19T07:29:56;101074.19;;;54.37;10.96
77019;BME280;66044;53.142;17.962;2023-06-19T07:32:23;101078.63;;;54.01;11.33
77019;BME280;66044;53.142;17.962;2023-06-19T07:34:49;101076.73;;;53.34;11.29
77019;BME280;66044;53.142;17.962;2023-06-19T07:37:16;101071.71;;;52.02;11.59
77019;BME280;66044;53.142;17.962;2023-06-19T07:39:46;101064.13;;;50.11;12.68
77019;BME280;66044;53.142;17.962;2023-06-19T07:42:14;101060.29;;;48.13;13.80
77019;BME280;66044;53.142;17.962;2023-06-19T07:44:42;101052.09;;;45.84;15.13
77019;BME280;66044;53.142;17.962;2023-06-19T07:47:09;101049.56;;;44.08;16.69
77019;BME280;66044;53.142;17.962;2023-06-19T07:49:36;101045.61;;;42.63;17.56
77019;BME280;66044;53.142;17.962;2023-06-19T07:52:04;101038.98;;;41.31;18.85
77019;BME280;66044;53.142;17.962;2023-06-19T07:54:30;101031.05;;;40.27;19.51
77019;BME280;66044;53.142;17.962;2023-06-19T07:56:57;101035.11;;;39.29;20.68
77019;BME280;66044;53.142;17.962;2023-06-19T07:59:23;101028.38;;;38.40;21.38
77019;BME280;66044;53.142;17.962;2023-06-19T08:01:50;101028.60;;;37.70;22.17
77019;BME280;66044;53.142;17.962;2023-06-19T08:04:16;101021.14;;;37.10;23.07
77019;BME280;66044;53.142;17.962;2023-06-19T08:06:43;101021.03;;;36.62;23.66
77019;BME280;66044;53.142;17.962;2023-06-19T08:09:09;101018.11;;;36.23;24.14
77019;BME280;66044;53.142;17.962;2023-06-19T08:11:36;101018.20;;;35.82;24.77
77019;BME280;66044;53.142;17.962;2023-06-19T08:14:03;101013.38;;;35.36;25.10
77019;BME280;66044;53.142;17.962;2023-06-19T08:16:30;101019.35;;;35.09;25.48
77019;BME280;66044;53.142;17.962;2023-06-19T08:18:56;101021.47;;;34.77;25.84
77019;BME280;66044;53.142;17.962;2023-06-19T08:21:22;101022.30;;;34.29;26.70
77019;BME280;66044;53.142;17.962;2023-06-19T08:23:49;101018.63;;;33.76;27.13
77019;BME280;66044;53.142;17.962;2023-06-19T08:26:15;101016.83;;;33.55;27.52
77019;BME280;66044;53.142;17.962;2023-06-19T08:28:42;101015.02;;;33.49;27.17
77019;BME280;66044;53.142;17.962;2023-06-19T08:31:08;101014.16;;;33.45;27.18
77019;BME280;66044;53.142;17.962;2023-06-19T08:33:35;101013.30;;;33.43;27.41
77019;BME280;66044;53.142;17.962;2023-06-19T08:36:01;101015.69;;;33.35;27.31
77019;BME280;66044;53.142;17.962;2023-06-19T08:38:28;101017.71;;;33.20;26.97
77019;BME280;66044;53.142;17.962;2023-06-19T08:40:54;101014.48;;;32.91;26.83
77019;BME280;66044;53.142;17.962;2023-06-19T08:43:21;101013.21;;;32.73;26.65
77019;BME280;66044;53.142;17.962;2023-06-19T08:46:10;101015.54;;;32.55;26.82
77019;BME280;66044;53.142;17.962;2023-06-19T08:48:38;101019.42;;;32.41;27.15
77019;BME280;66044;53.142;17.962;2023-06-19T08:51:05;101016.51;;;32.19;27.36
77019;BME280;66044;53.142;17.962;2023-06-19T08:53:34;101017.73;;;32.13;27.36
77019;BME280;66044;53.142;17.962;2023-06-19T08:56:03;101011.98;;;32.10;27.63
77019;BME280;66044;53.142;17.962;2023-06-19T08:58:30;101009.31;;;32.08;27.56
77019;BME280;66044;53.142;17.962;2023-06-19T09:00:58;101007.38;;;32.00;27.72
77019;BME280;66044;53.142;17.962;2023-06-19T09:03:25;101004.81;;;31.97;28.09
77019;BME280;66044;53.142;17.962;2023-06-19T09:05:51;101002.27;;;31.98;27.94
77019;BME280;66044;53.142;17.962;2023-06-19T09:08:19;101001.84;;;32.01;28.59
77019;BME280;66044;53.142;17.962;2023-06-19T09:11:00;101000.00;;;31.83;28.65
77019;BME280;66044;53.142;17.962;2023-06-19T09:13:27;100997.46;;;31.61;29.09
77019;BME280;66044;53.142;17.962;2023-06-19T09:16:07;101000.64;;;31.57;29.33
77019;BME280;66044;53.142;17.962;2023-06-19T09:18:45;100995.02;;;31.58;29.35
77019;BME280;66044;53.142;17.962;2023-06-19T09:21:19;100988.80;;;31.42;29.09
77019;BME280;66044;53.142;17.962;2023-06-19T09:23:48;100984.18;;;31.22;29.42
77019;BME280;66044;53.142;17.962;2023-06-19T09:26:16;100981.70;;;31.11;29.63
77019;BME280;66044;53.142;17.962;2023-06-19T09:28:44;100979.44;;;30.96;29.48
77019;BME280;66044;53.142;17.962;2023-06-19T09:31:11;100976.92;;;30.86;29.48
77019;BME280;66044;53.142;17.962;2023-06-19T09:33:39;100977.02;;;30.80;29.19
77019;BME280;66044;53.142;17.962;2023-06-19T09:36:06;100978.13;;;30.89;29.26
77019;BME280;66044;53.142;17.962;2023-06-19T09:38:35;100979.20;;;30.96;29.00
77019;BME280;66044;53.142;17.962;2023-06-19T09:41:05;100974.58;;;30.87;29.19
77019;BME280;66044;53.142;17.962;2023-06-19T09:43:58;100974.63;;;30.80;29.32
77019;BME280;66044;53.142;17.962;2023-06-19T09:46:31;100975.62;;;30.87;29.19
77019;BME280;66044;53.142;17.962;2023-06-19T09:49:01;100974.55;;;30.98;28.86
77019;BME280;66044;53.142;17.962;2023-06-19T09:51:31;100974.83;;;31.06;29.04
77019;BME280;66044;53.142;17.962;2023-06-19T09:53:59;100978.90;;;31.21;29.04
77019;BME280;66044;53.142;17.962;2023-06-19T09:56:28;100977.75;;;31.39;29.14
77019;BME280;66044;53.142;17.962;2023-06-19T09:58:57;100974.77;;;31.53;28.78
77019;BME280;66044;53.142;17.962;2023-06-19T10:01:29;100972.54;;;31.67;28.73
77019;BME280;66044;53.142;17.962;2023-06-19T10:04:06;100970.48;;;31.75;28.40
77019;BME280;66044;53.142;17.962;2023-06-19T10:06:43;100973.31;;;31.73;28.46
77019;BME280;66044;53.142;17.962;2023-06-19T10:09:10;100970.36;;;31.83;28.32
77019;BME280;66044;53.142;17.962;2023-06-19T10:11:47;100968.15;;;31.96;28.38
77019;BME280;66044;53.142;17.962;2023-06-19T10:14:14;100965.71;;;31.95;28.05
77019;BME280;66044;53.142;17.962;2023-06-19T10:16:40;100967.15;;;31.88;27.92
77019;BME280;66044;53.142;17.962;2023-06-19T10:19:13;100965.68;;;31.75;27.83
77019;BME280;66044;53.142;17.962;2023-06-19T10:21:48;100964.56;;;31.60;27.90
77019;BME280;66044;53.142;17.962;2023-06-19T10:24:19;100960.66;;;31.40;27.75
77019;BME280;66044;53.142;17.962;2023-06-19T10:27:02;100960.47;;;31.11;27.93
77019;BME280;66044;53.142;17.962;2023-06-19T10:29:39;100958.38;;;30.76;28.46
77019;BME280;66044;53.142;17.962;2023-06-19T10:32:06;100961.23;;;30.58;29.09
77019;BME280;66044;53.142;17.962;2023-06-19T10:34:34;100965.02;;;30.48;29.23
77019;BME280;66044;53.142;17.962;2023-06-19T10:37:00;100962.83;;;30.37;28.86
77019;BME280;66044;53.142;17.962;2023-06-19T10:39:27;100962.07;;;30.27;29.00
77019;BME280;66044;53.142;17.962;2023-06-19T10:41:54;100960.69;;;30.20;28.84
77019;BME280;66044;53.142;17.962;2023-06-19T10:44:23;100964.16;;;30.16;28.95
77019;BME280;66044;53.142;17.962;2023-06-19T10:46:52;100960.45;;;30.10;29.25
77019;BME280;66044;53.142;17.962;2023-06-19T10:49:19;100960.56;;;30.05;29.34
77019;BME280;66044;53.142;17.962;2023-06-19T10:51:48;100957.40;;;30.03;29.85
77019;BME280;66044;53.142;17.962;2023-06-19T10:54:14;100957.97;;;30.04;29.80
77019;BME280;66044;53.142;17.962;2023-06-19T10:56:41;100962.42;;;30.08;29.99
77019;BME280;66044;53.142;17.962;2023-06-19T10:59:10;100960.89;;;30.10;30.08
77019;BME280;66044;53.142;17.962;2023-06-19T11:01:42;100961.42;;;30.05;29.23
77019;BME280;66044;53.142;17.962;2023-06-19T11:04:12;100959.55;;;30.00;29.35
77019;BME280;66044;53.142;17.962;2023-06-19T11:06:40;100954.46;;;30.00;29.67
77019;BME280;66044;53.142;17.962;2023-06-19T11:09:08;100955.56;;;30.05;29.73
77019;BME280;66044;53.142;17.962;2023-06-19T11:14:05;100959.03;;;30.12;30.54
77019;BME280;66044;53.142;17.962;2023-06-19T11:16:33;100955.45;;;30.18;30.27
77019;BME280;66044;53.142;17.962;2023-06-19T11:19:01;100957.67;;;30.21;30.08
77019;BME280;66044;53.142;17.962;2023-06-19T11:21:31;100956.22;;;30.11;29.68
77019;BME280;66044;53.142;17.962;2023-06-19T11:24:01;100959.92;;;30.09;29.73
77019;BME280;66044;53.142;17.962;2023-06-19T11:26:28;100958.69;;;30.15;30.18
77019;BME280;66044;53.142;17.962;2023-06-19T11:28:54;100958.83;;;30.19;30.11
77019;BME280;66044;53.142;17.962;2023-06-19T11:31:28;100961.39;;;30.22;30.24
77019;BME280;66044;53.142;17.962;2023-06-19T11:33:59;100959.77;;;30.22;30.31
77019;BME280;66044;53.142;17.962;2023-06-19T11:36:28;100959.66;;;30.24;30.23
77019;BME280;66044;53.142;17.962;2023-06-19T11:38:55;100955.73;;;30.23;30.04
77019;BME280;66044;53.142;17.962;2023-06-19T11:41:26;100953.42;;;30.24;29.61
77019;BME280;66044;53.142;17.962;2023-06-19T11:44:02;100952.00;;;30.22;30.19
77019;BME280;66044;53.142;17.962;2023-06-19T11:46:30;100943.04;;;30.16;30.35
77019;BME280;66044;53.142;17.962;2023-06-19T11:49:12;100947.92;;;30.02;30.53
77019;BME280;66044;53.142;17.962;2023-06-19T11:51:40;100947.60;;;29.96;30.73
77019;BME280;66044;53.142;17.962;2023-06-19T11:54:09;100944.20;;;29.84;30.80
77019;BME280;66044;53.142;17.962;2023-06-19T11:56:39;100935.98;;;29.73;30.82
77019;BME280;66044;53.142;17.962;2023-06-19T11:59:06;100935.84;;;29.55;30.90
77019;BME280;66044;53.142;17.962;2023-06-19T12:01:34;100937.02;;;29.35;30.97
77019;BME280;66044;53.142;17.962;2023-06-19T12:04:02;100931.71;;;29.22;31.49
77019;BME280;66044;53.142;17.962;2023-06-19T12:06:29;100934.77;;;29.28;31.37
77019;BME280;66044;53.142;17.962;2023-06-19T12:08:56;100933.06;;;29.39;31.26
77019;BME280;66044;53.142;17.962;2023-06-19T12:11:22;100934.79;;;29.51;31.39
77019;BME280;66044;53.142;17.962;2023-06-19T12:13:51;100934.14;;;29.58;30.89
77019;BME280;66044;53.142;17.962;2023-06-19T12:16:19;100932.23;;;29.61;31.08
77019;BME280;66044;53.142;17.962;2023-06-19T12:18:46;100935.42;;;29.60;30.97
77019;BME280;66044;53.142;17.962;2023-06-19T12:21:12;100932.10;;;29.66;30.88
77019;BME280;66044;53.142;17.962;2023-06-19T12:23:38;100929.85;;;29.74;30.86
77019;BME280;66044;53.142;17.962;2023-06-19T12:26:05;100928.13;;;29.71;31.01
77019;BME280;66044;53.142;17.962;2023-06-19T12:28:31;100929.14;;;29.70;31.43
77019;BME280;66044;53.142;17.962;2023-06-19T12:30:58;100923.79;;;29.66;31.29
77019;BME280;66044;53.142;17.962;2023-06-19T12:33:25;100920.19;;;29.63;31.22
77019;BME280;66044;53.142;17.962;2023-06-19T12:35:51;100918.73;;;29.59;31.29
77019;BME280;66044;53.142;17.962;2023-06-19T12:38:17;100915.63;;;29.47;31.27
77019;BME280;66044;53.142;17.962;2023-06-19T12:40:44;100916.42;;;29.42;31.47
77019;BME280;66044;53.142;17.962;2023-06-19T12:43:11;100911.23;;;29.46;31.42
77019;BME280;66044;53.142;17.962;2023-06-19T12:45:37;100910.23;;;29.50;31.40